createdAt,value
2023-02-12T00:01:08.881Z,21.98
2023-02-12T00:03:36.027Z,20.58
2023-02-12T00:06:02.709Z,23.10
2023-02-12T00:08:29.425Z,22.98
2023-02-12T00:10:56.595Z,22.30
2023-02-12T00:13:23.901Z,28.20
2023-02-12T00:15:50.677Z,31.60
2023-02-12T00:18:17.264Z,30.30
2023-02-12T00:20:43.792Z,28.70
2023-02-12T00:23:10.721Z,28.52
2023-02-12T00:25:41.191Z,27.88
2023-02-12T00:28:07.960Z,29.48
2023-02-12T00:30:35.418Z,30.15
2023-02-12T00:33:02.087Z,28.85
2023-02-12T00:35:28.798Z,29.65
2023-02-12T00:37:55.584Z,28.88
2023-02-12T00:40:22.184Z,29.77
2023-02-12T00:42:49.132Z,26.75
2023-02-12T00:45:17.285Z,26.23
2023-02-12T00:47:43.890Z,25.92
2023-02-12T00:50:10.894Z,27.15
2023-02-12T00:52:37.459Z,27.52
2023-02-12T00:55:04.793Z,28.27
2023-02-12T00:57:33.277Z,28.77
2023-02-12T01:00:00.144Z,27.60
2023-02-12T01:02:26.937Z,26.70
2023-02-12T01:04:53.583Z,26.92
2023-02-12T01:07:23.577Z,26.35
2023-02-12T01:09:50.152Z,24.92
2023-02-12T01:12:16.780Z,25.15
2023-02-12T01:14:43.421Z,25.15
2023-02-12T01:17:10.093Z,24.55
2023-02-12T01:19:36.703Z,25.77
2023-02-12T01:22:03.451Z,25.15
2023-02-12T01:24:30.298Z,25.05
2023-02-12T01:26:58.431Z,26.83
2023-02-12T01:29:25.074Z,26.95
2023-02-12T01:31:52.236Z,27.38
2023-02-12T01:34:19.020Z,29.35
2023-02-12T01:36:45.685Z,28.60
2023-02-12T01:39:12.585Z,29.13
2023-02-12T01:41:43.560Z,28.13
2023-02-12T01:44:22.123Z,27.50
2023-02-12T01:46:51.191Z,27.33
2023-02-12T01:49:25.659Z,25.95
2023-02-12T01:51:59.629Z,28.33
2023-02-12T01:54:27.020Z,27.48
2023-02-12T01:56:54.037Z,26.45
2023-02-12T01:59:21.149Z,25.92
2023-02-12T02:01:47.962Z,27.33
2023-02-12T02:04:20.041Z,27.48
2023-02-12T02:06:59.758Z,26.63
2023-02-12T02:09:27.347Z,26.65
2023-02-12T02:12:14.014Z,26.73
2023-02-12T02:14:41.230Z,26.92
2023-02-12T02:17:21.125Z,27.63
2023-02-12T02:20:18.801Z,28.27
2023-02-12T02:22:57.190Z,29.45
2023-02-12T02:25:58.033Z,28.17
2023-02-12T02:28:30.804Z,27.27
2023-02-12T02:31:05.158Z,27.38
2023-02-12T02:33:50.084Z,27.02
2023-02-12T02:37:02.088Z,28.15
2023-02-12T02:39:42.200Z,27.90
2023-02-12T02:42:14.509Z,28.25
2023-02-12T02:44:49.087Z,28.02
2023-02-12T02:47:17.516Z,27.98
2023-02-12T02:49:56.255Z,28.27
2023-02-12T02:52:29.110Z,27.63
2023-02-12T02:55:01.013Z,26.67
2023-02-12T02:57:31.065Z,27.48
2023-02-12T03:00:07.993Z,28.33
2023-02-12T03:02:37.717Z,28.35
2023-02-12T03:05:17.436Z,25.15
2023-02-12T03:07:53.882Z,26.23
2023-02-12T03:10:32.452Z,26.45
2023-02-12T03:13:07.206Z,26.40
2023-02-12T03:16:03.142Z,26.38
2023-02-12T03:18:36.798Z,25.58
2023-02-12T03:21:08.285Z,27.70
2023-02-12T03:23:40.491Z,26.60
2023-02-12T03:26:15.844Z,26.90
2023-02-12T03:28:42.483Z,27.48
2023-02-12T03:31:21.710Z,27.50
2023-02-12T03:34:00.402Z,25.15
2023-02-12T03:36:52.514Z,25.75
2023-02-12T03:39:47.115Z,26.48
2023-02-12T03:42:18.271Z,26.95
2023-02-12T03:45:17.226Z,27.88
2023-02-12T03:47:48.094Z,26.98
2023-02-12T03:50:44.546Z,26.95
2023-02-12T03:53:11.461Z,26.05
2023-02-12T03:55:40.895Z,26.17
2023-02-12T03:58:09.523Z,28.17
2023-02-12T04:00:38.855Z,26.73
2023-02-12T04:03:06.289Z,26.37
2023-02-12T04:05:33.017Z,25.92
2023-02-12T04:08:00.774Z,26.60
2023-02-12T04:10:42.387Z,24.85
2023-02-12T04:13:21.777Z,25.52
2023-02-12T04:16:30.143Z,26.77
2023-02-12T04:18:57.174Z,27.27
2023-02-12T04:21:37.988Z,26.95
2023-02-12T04:24:17.451Z,27.77
2023-02-12T04:26:59.255Z,26.87
2023-02-12T04:29:32.920Z,26.48
2023-02-12T04:32:06.780Z,27.48
2023-02-12T04:34:46.258Z,28.17
2023-02-12T04:37:18.217Z,26.90
2023-02-12T04:39:45.349Z,27.67
2023-02-12T04:42:12.119Z,27.52
2023-02-12T04:44:40.639Z,27.35
2023-02-12T04:47:07.554Z,27.50
2023-02-12T04:49:34.146Z,27.75
2023-02-12T04:52:00.782Z,27.90
2023-02-12T04:54:27.435Z,28.05
2023-02-12T04:56:54.210Z,28.05
2023-02-12T04:59:21.062Z,27.17
2023-02-12T05:01:47.834Z,28.25
2023-02-12T05:04:16.133Z,28.33
2023-02-12T05:06:44.039Z,27.33
2023-02-12T05:09:14.841Z,27.85
2023-02-12T05:11:41.576Z,27.10
2023-02-12T05:14:08.216Z,27.40
2023-02-12T05:16:34.899Z,25.95
2023-02-12T05:19:01.514Z,25.52
2023-02-12T05:21:28.297Z,25.85
2023-02-12T05:23:55.164Z,25.90
2023-02-12T05:26:22.273Z,25.80
2023-02-12T05:28:48.960Z,27.42
2023-02-12T05:31:21.041Z,26.35
2023-02-12T05:33:48.679Z,25.35
2023-02-12T05:36:18.374Z,25.92
2023-02-12T05:38:45.229Z,25.67
2023-02-12T05:41:14.236Z,25.13
2023-02-12T05:43:41.256Z,25.73
2023-02-12T05:46:09.343Z,25.33
2023-02-12T05:48:36.737Z,25.45
2023-02-12T05:51:04.581Z,25.98
2023-02-12T05:53:31.573Z,25.10
2023-02-12T05:56:17.099Z,23.85
2023-02-12T05:58:46.697Z,23.65
2023-02-12T06:01:16.502Z,23.50
2023-02-12T06:03:43.595Z,24.10
2023-02-12T06:06:10.876Z,24.38
2023-02-12T06:08:37.777Z,22.65
2023-02-12T06:11:07.175Z,22.67
2023-02-12T06:13:34.729Z,23.80
2023-02-12T06:16:01.466Z,23.83
2023-02-12T06:18:28.508Z,25.05
2023-02-12T06:20:55.166Z,23.90
2023-02-12T06:23:22.625Z,23.67
2023-02-12T06:25:50.315Z,24.88
2023-02-12T06:28:17.370Z,23.65
2023-02-12T06:30:44.103Z,23.23
2023-02-12T06:33:10.750Z,23.70
2023-02-12T06:35:37.647Z,24.45
2023-02-12T06:38:04.947Z,23.00
2023-02-12T06:40:32.089Z,23.80
2023-02-12T06:42:58.722Z,24.50
2023-02-12T06:45:25.457Z,25.58
2023-02-12T06:47:52.158Z,25.35
2023-02-12T06:50:19.190Z,24.27
2023-02-12T06:52:45.798Z,24.27
2023-02-12T06:55:12.394Z,23.15
2023-02-12T06:57:39.172Z,22.40
2023-02-12T07:00:06.420Z,23.45
2023-02-12T07:02:33.014Z,22.13
2023-02-12T07:04:59.584Z,21.83
2023-02-12T07:07:26.152Z,25.27
2023-02-12T07:09:52.724Z,24.02
2023-02-12T07:12:19.339Z,24.55
2023-02-12T07:14:45.917Z,24.58
2023-02-12T07:17:12.483Z,25.90
2023-02-12T07:19:39.189Z,26.75
2023-02-12T07:22:05.936Z,26.23
2023-02-12T07:24:32.555Z,27.10
2023-02-12T07:26:59.104Z,28.02
2023-02-12T07:29:25.678Z,27.15
2023-02-12T07:31:52.406Z,27.00
2023-02-12T07:34:19.152Z,26.90
2023-02-12T07:36:45.741Z,25.35
2023-02-12T07:39:13.070Z,25.33
2023-02-12T07:41:39.715Z,25.20
2023-02-12T07:44:10.266Z,25.38
2023-02-12T07:46:44.091Z,25.55
2023-02-12T07:49:17.298Z,25.05
2023-02-12T07:51:43.937Z,25.35
2023-02-12T07:54:11.667Z,24.77
2023-02-12T07:56:39.339Z,25.30
2023-02-12T07:59:12.305Z,25.58
2023-02-12T08:01:45.602Z,25.70
2023-02-12T08:04:14.064Z,25.02
2023-02-12T08:06:43.333Z,25.13
2023-02-12T08:09:12.308Z,24.40
2023-02-12T08:11:39.573Z,24.58
2023-02-12T08:14:06.375Z,24.05
2023-02-12T08:16:36.641Z,24.48
